sensor_id;sensor_type;location;lat;lon;timestamp;temperature;humidity
58554;DHT22;48119;53.218;6.576;2023-12-28T00:00:39;11.40;99.90
58554;DHT22;48119;53.218;6.576;2023-12-28T00:03:05;11.40;99.90
58554;DHT22;48119;53.218;6.576;2023-12-28T00:05:31;11.50;99.90
58554;DHT22;48119;53.218;6.576;2023-12-28T00:07:57;11.40;99.90
58554;DHT22;48119;53.218;6.576;2023-12-28T00:10:25;11.50;99.90
58554;DHT22;48119;53.218;6.576;2023-12-28T00:12:51;11.40;99.90
58554;DHT22;48119;53.218;6.576;2023-12-28T00:15:17;11.40;99.90
58554;DHT22;48119;53.218;6.576;2023-12-28T00:17:43;11.40;99.90
58554;DHT22;48119;53.218;6.576;2023-12-28T00:20:09;11.40;99.90
58554;DHT22;48119;53.218;6.576;2023-12-28T00:22:35;11.50;99.90
58554;DHT22;48119;53.218;6.576;2023-12-28T00:25:09;11.50;99.90
58554;DHT22;48119;53.218;6.576;2023-12-28T00:27:35;11.50;99.90
58554;DHT22;48119;53.218;6.576;2023-12-28T00:30:09;11.50;99.90
58554;DHT22;48119;53.218;6.576;2023-12-28T00:32:35;11.50;99.90
58554;DHT22;48119;53.218;6.576;2023-12-28T00:35:01;11.50;99.90
58554;DHT22;48119;53.218;6.576;2023-12-28T00:37:27;11.50;99.90
58554;DHT22;48119;53.218;6.576;2023-12-28T00:39:52;11.50;99.90
58554;DHT22;48119;53.218;6.576;2023-12-28T00:42:18;11.50;99.90
58554;DHT22;48119;53.218;6.576;2023-12-28T00:44:45;11.50;99.90
58554;DHT22;48119;53.218;6.576;2023-12-28T00:47:11;11.50;99.90
58554;DHT22;48119;53.218;6.576;2023-12-28T00:49:37;11.60;99.90
58554;DHT22;48119;53.218;6.576;2023-12-28T00:52:03;11.60;99.90
58554;DHT22;48119;53.218;6.576;2023-12-28T00:54:31;11.60;99.90
58554;DHT22;48119;53.218;6.576;2023-12-28T00:56:57;11.60;99.90
58554;DHT22;48119;53.218;6.576;2023-12-28T00:59:23;11.60;99.90
58554;DHT22;48119;53.218;6.576;2023-12-28T01:01:52;11.60;99.90
58554;DHT22;48119;53.218;6.576;2023-12-28T01:04:17;11.60;99.90
58554;DHT22;48119;53.218;6.576;2023-12-28T01:06:44;11.60;99.90
58554;DHT22;48119;53.218;6.576;2023-12-28T01:09:10;11.60;99.90
58554;DHT22;48119;53.218;6.576;2023-12-28T01:11:35;11.60;99.90
58554;DHT22;48119;53.218;6.576;2023-12-28T01:14:01;11.60;99.90
58554;DHT22;48119;53.218;6.576;2023-12-28T01:16:27;11.60;99.90
58554;DHT22;48119;53.218;6.576;2023-12-28T01:18:53;11.60;99.90
58554;DHT22;48119;53.218;6.576;2023-12-28T01:21:18;11.60;99.90
58554;DHT22;48119;53.218;6.576;2023-12-28T01:23:44;11.60;99.90
58554;DHT22;48119;53.218;6.576;2023-12-28T01:26:14;11.60;99.90
58554;DHT22;48119;53.218;6.576;2023-12-28T01:28:40;11.60;99.90
58554;DHT22;48119;53.218;6.576;2023-12-28T01:31:09;11.60;99.90
58554;DHT22;48119;53.218;6.576;2023-12-28T01:33:38;11.60;99.90
58554;DHT22;48119;53.218;6.576;2023-12-28T01:36:18;11.70;99.90
58554;DHT22;48119;53.218;6.576;2023-12-28T01:38:45;11.70;99.90
58554;DHT22;48119;53.218;6.576;2023-12-28T01:41:13;11.70;99.90
58554;DHT22;48119;53.218;6.576;2023-12-28T01:43:43;11.70;99.90
58554;DHT22;48119;53.218;6.576;2023-12-28T01:46:15;11.70;99.90
58554;DHT22;48119;53.218;6.576;2023-12-28T01:48:43;11.70;99.90
58554;DHT22;48119;53.218;6.576;2023-12-28T01:51:11;11.70;99.90
58554;DHT22;48119;53.218;6.576;2023-12-28T01:53:37;11.70;99.90
58554;DHT22;48119;53.218;6.576;2023-12-28T01:56:03;11.70;99.90
58554;DHT22;48119;53.218;6.576;2023-12-28T01:58:32;11.70;99.90
58554;DHT22;48119;53.218;6.576;2023-12-28T02:00:59;11.70;99.90
58554;DHT22;48119;53.218;6.576;2023-12-28T02:03:26;11.70;99.90
58554;DHT22;48119;53.218;6.576;2023-12-28T02:05:52;11.70;99.90
58554;DHT22;48119;53.218;6.576;2023-12-28T02:08:18;11.70;99.90
58554;DHT22;48119;53.218;6.576;2023-12-28T02:10:44;11.70;99.90
58554;DHT22;48119;53.218;6.576;2023-12-28T02:13:10;11.70;99.90
58554;DHT22;48119;53.218;6.576;2023-12-28T02:15:36;11.70;99.90
58554;DHT22;48119;53.218;6.576;2023-12-28T02:18:06;11.70;99.90
58554;DHT22;48119;53.218;6.576;2023-12-28T02:20:37;11.70;99.90
58554;DHT22;48119;53.218;6.576;2023-12-28T02:23:04;11.70;99.90
58554;DHT22;48119;53.218;6.576;2023-12-28T02:25:31;11.70;99.90
58554;DHT22;48119;53.218;6.576;2023-12-28T02:27:57;11.70;99.90
58554;DHT22;48119;53.218;6.576;2023-12-28T02:30:24;11.70;99.90
58554;DHT22;48119;53.218;6.576;2023-12-28T02:35:55;11.70;99.90
58554;DHT22;48119;53.218;6.576;2023-12-28T02:38:21;11.70;99.90
58554;DHT22;48119;53.218;6.576;2023-12-28T02:40:49;11.70;99.90
58554;DHT22;48119;53.218;6.576;2023-12-28T02:43:16;11.70;99.90
58554;DHT22;48119;53.218;6.576;2023-12-28T02:45:41;11.70;99.90
58554;DHT22;48119;53.218;6.576;2023-12-28T02:48:07;11.70;99.90
58554;DHT22;48119;53.218;6.576;2023-12-28T02:50:34;11.70;99.90
58554;DHT22;48119;53.218;6.576;2023-12-28T02:53:00;11.70;99.90
58554;DHT22;48119;53.218;6.576;2023-12-28T02:55:26;11.70;99.90
58554;DHT22;48119;53.218;6.576;2023-12-28T02:57:54;11.70;99.90
58554;DHT22;48119;53.218;6.576;2023-12-28T03:00:21;11.70;99.90
58554;DHT22;48119;53.218;6.576;2023-12-28T03:02:47;11.70;99.90
58554;DHT22;48119;53.218;6.576;2023-12-28T03:05:13;11.70;99.90
58554;DHT22;48119;53.218;6.576;2023-12-28T03:07:38;11.70;99.90
58554;DHT22;48119;53.218;6.576;2023-12-28T03:10:06;11.80;99.90
58554;DHT22;48119;53.218;6.576;2023-12-28T03:12:32;11.70;99.90
58554;DHT22;48119;53.218;6.576;2023-12-28T03:14:58;11.70;99.90
58554;DHT22;48119;53.218;6.576;2023-12-28T03:17:24;11.80;99.90
58554;DHT22;48119;53.218;6.576;2023-12-28T03:19:49;11.80;99.90
58554;DHT22;48119;53.218;6.576;2023-12-28T03:22:15;11.80;99.90
58554;DHT22;48119;53.218;6.576;2023-12-28T03:24:43;11.80;99.90
58554;DHT22;48119;53.218;6.576;2023-12-28T03:27:09;11.80;99.90
58554;DHT22;48119;53.218;6.576;2023-12-28T03:29:34;11.80;99.90
58554;DHT22;48119;53.218;6.576;2023-12-28T03:32:00;11.80;99.90
58554;DHT22;48119;53.218;6.576;2023-12-28T03:34:26;11.90;99.90
58554;DHT22;48119;53.218;6.576;2023-12-28T03:36:54;11.90;99.90
58554;DHT22;48119;53.218;6.576;2023-12-28T03:39:20;11.90;99.90
58554;DHT22;48119;53.218;6.576;2023-12-28T03:41:47;11.90;99.90
58554;DHT22;48119;53.218;6.576;2023-12-28T03:44:13;11.90;99.90
58554;DHT22;48119;53.218;6.576;2023-12-28T03:46:39;11.90;99.90
58554;DHT22;48119;53.218;6.576;2023-12-28T03:49:04;11.90;99.90
58554;DHT22;48119;53.218;6.576;2023-12-28T03:51:30;11.90;99.90
58554;DHT22;48119;53.218;6.576;2023-12-28T03:53:56;12.00;99.90
58554;DHT22;48119;53.218;6.576;2023-12-28T03:56:27;12.00;99.90
58554;DHT22;48119;53.218;6.576;2023-12-28T03:58:53;12.00;99.90
58554;DHT22;48119;53.218;6.576;2023-12-28T04:01:21;12.00;99.90
58554;DHT22;48119;53.218;6.576;2023-12-28T04:03:47;12.00;99.90
58554;DHT22;48119;53.218;6.576;2023-12-28T04:06:13;12.00;99.90
58554;DHT22;48119;53.218;6.576;2023-12-28T04:08:40;12.00;99.90
58554;DHT22;48119;53.218;6.576;2023-12-28T04:11:06;11.90;99.90
58554;DHT22;48119;53.218;6.576;2023-12-28T04:13:32;12.00;99.90
58554;DHT22;48119;53.218;6.576;2023-12-28T04:15:58;12.00;99.90
58554;DHT22;48119;53.218;6.576;2023-12-28T04:18:23;12.00;99.90
58554;DHT22;48119;53.218;6.576;2023-12-28T04:20:49;12.00;99.90
58554;DHT22;48119;53.218;6.576;2023-12-28T04:23:15;12.00;99.90
58554;DHT22;48119;53.218;6.576;2023-12-28T04:25:41;12.00;99.90
58554;DHT22;48119;53.218;6.576;2023-12-28T04:28:07;12.00;99.90
58554;DHT22;48119;53.218;6.576;2023-12-28T04:30:33;12.00;99.90
58554;DHT22;48119;53.218;6.576;2023-12-28T04:33:00;12.00;99.90
58554;DHT22;48119;53.218;6.576;2023-12-28T04:35:25;12.10;99.90
58554;DHT22;48119;53.218;6.576;2023-12-28T04:37:51;12.10;99.90
58554;DHT22;48119;53.218;6.576;2023-12-28T04:40:17;12.10;99.90
58554;DHT22;48119;53.218;6.576;2023-12-28T04:42:43;12.10;99.90
58554;DHT22;48119;53.218;6.576;2023-12-28T04:45:09;12.10;99.90
58554;DHT22;48119;53.218;6.576;2023-12-28T04:47:38;12.10;99.90
58554;DHT22;48119;53.218;6.576;2023-12-28T04:50:05;12.10;99.90
58554;DHT22;48119;53.218;6.576;2023-12-28T04:52:31;12.10;99.90
58554;DHT22;48119;53.218;6.576;2023-12-28T04:54:57;12.10;99.90
58554;DHT22;48119;53.218;6.576;2023-12-28T04:57:23;12.10;99.90
58554;DHT22;48119;53.218;6.576;2023-12-28T04:59:53;12.10;99.90
58554;DHT22;48119;53.218;6.576;2023-12-28T05:02:19;12.10;99.90
58554;DHT22;48119;53.218;6.576;2023-12-28T05:04:45;12.10;99.90
58554;DHT22;48119;53.218;6.576;2023-12-28T05:07:11;12.10;99.90
58554;DHT22;48119;53.218;6.576;2023-12-28T05:09:37;12.20;99.90
58554;DHT22;48119;53.218;6.576;2023-12-28T05:12:03;12.20;99.90
58554;DHT22;48119;53.218;6.576;2023-12-28T05:14:28;12.20;99.90
58554;DHT22;48119;53.218;6.576;2023-12-28T05:16:54;12.20;99.90
58554;DHT22;48119;53.218;6.576;2023-12-28T05:19:20;12.20;99.90
58554;DHT22;48119;53.218;6.576;2023-12-28T05:21:46;12.20;99.90
58554;DHT22;48119;53.218;6.576;2023-12-28T05:24:13;12.20;99.90
58554;DHT22;48119;53.218;6.576;2023-12-28T05:26:38;12.20;99.90
58554;DHT22;48119;53.218;6.576;2023-12-28T05:29:04;12.20;99.90
58554;DHT22;48119;53.218;6.576;2023-12-28T05:31:30;12.10;99.90
58554;DHT22;48119;53.218;6.576;2023-12-28T05:33:55;12.20;99.90
58554;DHT22;48119;53.218;6.576;2023-12-28T05:36:24;12.20;99.90
58554;DHT22;48119;53.218;6.576;2023-12-28T05:38:49;12.20;99.90
58554;DHT22;48119;53.218;6.576;2023-12-28T05:41:15;12.20;99.90
58554;DHT22;48119;53.218;6.576;2023-12-28T05:43:41;12.20;99.90
58554;DHT22;48119;53.218;6.576;2023-12-28T05:46:07;12.20;99.90
58554;DHT22;48119;53.218;6.576;2023-12-28T05:48:32;12.20;99.90
58554;DHT22;48119;53.218;6.576;2023-12-28T05:50:58;12.20;99.90
58554;DHT22;48119;53.218;6.576;2023-12-28T05:53:27;12.20;99.90
58554;DHT22;48119;53.218;6.576;2023-12-28T05:55:53;12.20;99.90
58554;DHT22;48119;53.218;6.576;2023-12-28T05:58:19;12.20;99.90
58554;DHT22;48119;53.218;6.576;2023-12-28T06:00:45;12.20;99.90
58554;DHT22;48119;53.218;6.576;2023-12-28T06:03:14;12.20;99.90
58554;DHT22;48119;53.218;6.576;2023-12-28T06:05:40;12.20;99.90
58554;DHT22;48119;53.218;6.576;2023-12-28T06:08:06;12.20;99.90
58554;DHT22;48119;53.218;6.576;2023-12-28T06:10:32;12.20;99.90
58554;DHT22;48119;53.218;6.576;2023-12-28T06:12:57;12.20;99.90
58554;DHT22;48119;53.218;6.576;2023-12-28T06:15:23;12.30;99.90
58554;DHT22;48119;53.218;6.576;2023-12-28T06:17:49;12.30;99.90
58554;DHT22;48119;53.218;6.576;2023-12-28T06:20:15;12.30;99.90
58554;DHT22;48119;53.218;6.576;2023-12-28T06:22:40;12.20;99.90
58554;DHT22;48119;53.218;6.576;2023-12-28T06:25:06;12.20;99.90
58554;DHT22;48119;53.218;6.576;2023-12-28T06:27:33;12.20;99.90
58554;DHT22;48119;53.218;6.576;2023-12-28T06:29:59;12.20;99.90
58554;DHT22;48119;53.218;6.576;2023-12-28T06:32:25;12.20;99.90
58554;DHT22;48119;53.218;6.576;2023-12-28T06:34:50;12.20;99.90
58554;DHT22;48119;53.218;6.576;2023-12-28T06:37:16;12.20;99.90
58554;DHT22;48119;53.218;6.576;2023-12-28T06:39:43;12.20;99.90
58554;DHT22;48119;53.218;6.576;2023-12-28T06:42:09;12.20;99.90
58554;DHT22;48119;53.218;6.576;2023-12-28T06:44:34;12.20;99.90
58554;DHT22;48119;53.218;6.576;2023-12-28T06:47:00;12.30;99.90
58554;DHT22;48119;53.218;6.576;2023-12-28T06:49:26;12.30;99.90
58554;DHT22;48119;53.218;6.576;2023-12-28T06:51:51;12.30;99.90
58554;DHT22;48119;53.218;6.576;2023-12-28T06:54:18;12.30;99.90
58554;DHT22;48119;53.218;6.576;2023-12-28T06:56:44;12.30;99.90
58554;DHT22;48119;53.218;6.576;2023-12-28T06:59:09;12.30;99.90
58554;DHT22;48119;53.218;6.576;2023-12-28T07:01:40;12.30;99.90
58554;DHT22;48119;53.218;6.576;2023-12-28T07:04:07;12.30;99.90
58554;DHT22;48119;53.218;6.576;2023-12-28T07:06:32;12.30;99.90
58554;DHT22;48119;53.218;6.576;2023-12-28T07:08:58;12.30;99.90
58554;DHT22;48119;53.218;6.576;2023-12-28T07:11:24;12.30;99.90
58554;DHT22;48119;53.218;6.576;2023-12-28T07:13:52;12.30;99.90
58554;DHT22;48119;53.218;6.576;2023-12-28T07:16:17;12.30;99.90
58554;DHT22;48119;53.218;6.576;2023-12-28T07:18:43;12.30;99.90
58554;DHT22;48119;53.218;6.576;2023-12-28T07:21:09;12.30;99.90
58554;DHT22;48119;53.218;6.576;2023-12-28T07:23:35;12.30;99.90
58554;DHT22;48119;53.218;6.576;2023-12-28T07:26:01;12.30;99.90
58554;DHT22;48119;53.218;6.576;2023-12-28T07:28:27;12.30;99.90
58554;DHT22;48119;53.218;6.576;2023-12-28T07:30:53;12.40;99.90
58554;DHT22;48119;53.218;6.576;2023-12-28T07:33:19;12.40;99.90
58554;DHT22;48119;53.218;6.576;2023-12-28T07:35:45;12.30;99.90
58554;DHT22;48119;53.218;6.576;2023-12-28T07:38:11;12.30;99.90
58554;DHT22;48119;53.218;6.576;2023-12-28T07:40:43;12.30;99.90
58554;DHT22;48119;53.218;6.576;2023-12-28T07:43:11;12.30;99.90
58554;DHT22;48119;53.218;6.576;2023-12-28T07:45:36;12.30;99.90
58554;DHT22;48119;53.218;6.576;2023-12-28T07:48:04;12.40;99.90
58554;DHT22;48119;53.218;6.576;2023-12-28T07:50:30;12.40;99.90
58554;DHT22;48119;53.218;6.576;2023-12-28T07:52:56;12.40;99.90
58554;DHT22;48119;53.218;6.576;2023-12-28T07:55:21;12.40;99.90
58554;DHT22;48119;53.218;6.576;2023-12-28T07:57:47;12.40;99.90
58554;DHT22;48119;53.218;6.576;2023-12-28T08:00:13;12.40;99.90
58554;DHT22;48119;53.218;6.576;2023-12-28T08:02:39;12.40;99.90
58554;DHT22;48119;53.218;6.576;2023-12-28T08:05:05;12.40;99.90
58554;DHT22;48119;53.218;6.576;2023-12-28T08:07:31;12.40;99.90
58554;DHT22;48119;53.218;6.576;2023-12-28T08:09:57;12.40;99.90
58554;DHT22;48119;53.218;6.576;2023-12-28T08:12:23;12.40;99.90
58554;DHT22;48119;53.218;6.576;2023-12-28T08:14:54;12.40;99.90
58554;DHT22;48119;53.218;6.576;2023-12-28T08:17:19;12.40;99.90
58554;DHT22;48119;53.218;6.576;2023-12-28T08:19:45;12.40;99.90
58554;DHT22;48119;53.218;6.576;2023-12-28T08:22:11;12.50;99.90
58554;DHT22;48119;53.218;6.576;2023-12-28T08:24:37;12.50;99.90
58554;DHT22;48119;53.218;6.576;2023-12-28T08:27:03;12.50;99.90
58554;DHT22;48119;53.218;6.576;2023-12-28T08:29:28;12.50;99.90
58554;DHT22;48119;53.218;6.576;2023-12-28T08:31:54;12.50;99.90
58554;DHT22;48119;53.218;6.576;2023-12-28T08:34:21;12.50;99.90
58554;DHT22;48119;53.218;6.576;2023-12-28T08:36:47;12.50;99.90
58554;DHT22;48119;53.218;6.576;2023-12-28T08:39:12;12.50;99.90
58554;DHT22;48119;53.218;6.576;2023-12-28T08:41:38;12.50;99.90
58554;DHT22;48119;53.218;6.576;2023-12-28T08:44:04;12.50;99.90
58554;DHT22;48119;53.218;6.576;2023-12-28T08:46:30;12.50;99.90
58554;DHT22;48119;53.218;6.576;2023-12-28T08:48:56;12.50;99.90
58554;DHT22;48119;53.218;6.576;2023-12-28T08:51:22;12.50;99.90
58554;DHT22;48119;53.218;6.576;2023-12-28T08:53:48;12.50;99.90
58554;DHT22;48119;53.218;6.576;2023-12-28T08:56:20;12.50;99.90
58554;DHT22;48119;53.218;6.576;2023-12-28T08:58:47;12.50;99.90
58554;DHT22;48119;53.218;6.576;2023-12-28T09:01:18;12.50;99.90
58554;DHT22;48119;53.218;6.576;2023-12-28T09:03:45;12.60;99.90
58554;DHT22;48119;53.218;6.576;2023-12-28T09:06:10;12.50;99.90
58554;DHT22;48119;53.218;6.576;2023-12-28T09:08:36;12.60;99.90
58554;DHT22;48119;53.218;6.576;2023-12-28T09:11:05;12.50;99.90
58554;DHT22;48119;53.218;6.576;2023-12-28T09:13:33;12.60;99.90
58554;DHT22;48119;53.218;6.576;2023-12-28T09:15:59;12.60;99.90
58554;DHT22;48119;53.218;6.576;2023-12-28T09:18:24;12.60;99.90
58554;DHT22;48119;53.218;6.576;2023-12-28T09:20:50;12.60;99.90
58554;DHT22;48119;53.218;6.576;2023-12-28T09:23:16;12.60;99.90
58554;DHT22;48119;53.218;6.576;2023-12-28T09:25:42;12.60;99.90
58554;DHT22;48119;53.218;6.576;2023-12-28T09:28:10;12.60;99.90
58554;DHT22;48119;53.218;6.576;2023-12-28T09:30:35;12.60;99.90
58554;DHT22;48119;53.218;6.576;2023-12-28T09:33:01;12.60;99.90
58554;DHT22;48119;53.218;6.576;2023-12-28T09:35:27;12.60;99.90
58554;DHT22;48119;53.218;6.576;2023-12-28T09:37:56;12.60;99.90
58554;DHT22;48119;53.218;6.576;2023-12-28T09:40:24;12.60;99.90
58554;DHT22;48119;53.218;6.576;2023-12-28T09:45:50;12.60;99.90
58554;DHT22;48119;53.218;6.576;2023-12-28T09:48:17;12.60;99.90
58554;DHT22;48119;53.218;6.576;2023-12-28T09:50:53;12.60;99.90
58554;DHT22;48119;53.218;6.576;2023-12-28T09:53:24;12.60;99.90
58554;DHT22;48119;53.218;6.576;2023-12-28T09:55:50;12.60;99.90
58554;DHT22;48119;53.218;6.576;2023-12-28T09:58:20;12.60;99.90
58554;DHT22;48119;53.218;6.576;2023-12-28T10:00:49;12.60;99.90
58554;DHT22;48119;53.218;6.576;2023-12-28T10:03:16;12.60;99.90
58554;DHT22;48119;53.218;6.576;2023-12-28T10:05:45;12.60;99.90
58554;DHT22;48119;53.218;6.576;2023-12-28T10:08:13;12.60;99.90
58554;DHT22;48119;53.218;6.576;2023-12-28T10:10:40;12.60;99.90
58554;DHT22;48119;53.218;6.576;2023-12-28T10:13:13;12.60;99.90
58554;DHT22;48119;53.218;6.576;2023-12-28T10:15:43;12.70;99.90
58554;DHT22;48119;53.218;6.576;2023-12-28T10:18:11;12.70;99.90
58554;DHT22;48119;53.218;6.576;2023-12-28T10:20:38;12.70;99.90
58554;DHT22;48119;53.218;6.576;2023-12-28T10:23:04;12.70;99.90
58554;DHT22;48119;53.218;6.576;2023-12-28T10:25:34;12.70;99.90
58554;DHT22;48119;53.218;6.576;2023-12-28T10:28:05;12.70;99.90
58554;DHT22;48119;53.218;6.576;2023-12-28T10:30:33;12.70;99.90
58554;DHT22;48119;53.218;6.576;2023-12-28T10:32:59;12.70;99.90
58554;DHT22;48119;53.218;6.576;2023-12-28T10:35:25;12.70;99.90
58554;DHT22;48119;53.218;6.576;2023-12-28T10:37:52;12.70;99.90
58554;DHT22;48119;53.218;6.576;2023-12-28T10:40:21;12.70;99.90
58554;DHT22;48119;53.218;6.576;2023-12-28T10:43:00;12.70;99.90
58554;DHT22;48119;53.218;6.576;2023-12-28T10:45:37;12.70;99.90
58554;DHT22;48119;53.218;6.576;2023-12-28T10:48:10;12.70;99.90
58554;DHT22;48119;53.218;6.576;2023-12-28T10:50:42;12.70;99.90
58554;DHT22;48119;53.218;6.576;2023-12-28T10:58:38;12.70;99.90
58554;DHT22;48119;53.218;6.576;2023-12-28T11:01:09;12.70;99.90
58554;DHT22;48119;53.218;6.576;2023-12-28T11:03:37;12.70;99.90
58554;DHT22;48119;53.218;6.576;2023-12-28T11:06:09;12.70;99.90
58554;DHT22;48119;53.218;6.576;2023-12-28T11:08:38;12.70;99.90
58554;DHT22;48119;53.218;6.576;2023-12-28T11:11:06;12.70;99.90
58554;DHT22;48119;53.218;6.576;2023-12-28T11:13:36;12.70;99.90
58554;DHT22;48119;53.218;6.576;2023-12-28T11:16:03;12.80;99.90
58554;DHT22;48119;53.218;6.576;2023-12-28T11:18:29;12.80;99.90
58554;DHT22;48119;53.218;6.576;2023-12-28T11:20:55;12.70;99.90
58554;DHT22;48119;53.218;6.576;2023-12-28T11:23:21;12.80;99.90
58554;DHT22;48119;53.218;6.576;2023-12-28T11:25:47;12.70;99.90
58554;DHT22;48119;53.218;6.576;2023-12-28T11:28:13;12.70;99.90
58554;DHT22;48119;53.218;6.576;2023-12-28T11:30:41;12.70;99.90
58554;DHT22;48119;53.218;6.576;2023-12-28T11:33:10;12.70;99.90
58554;DHT22;48119;53.218;6.576;2023-12-28T11:35:36;12.70;99.90
58554;DHT22;48119;53.218;6.576;2023-12-28T11:38:03;12.70;99.90
58554;DHT22;48119;53.218;6.576;2023-12-28T11:40:42;12.70;99.90
58554;DHT22;48119;53.218;6.576;2023-12-28T11:43:17;12.70;99.90
58554;DHT22;48119;53.218;6.576;2023-12-28T11:45:51;12.70;99.90
58554;DHT22;48119;53.218;6.576;2023-12-28T11:48:26;12.70;99.90
58554;DHT22;48119;53.218;6.576;2023-12-28T11:50:56;12.70;99.90
58554;DHT22;48119;53.218;6.576;2023-12-28T11:53:23;12.70;99.90
58554;DHT22;48119;53.218;6.576;2023-12-28T11:55:49;12.80;99.90
58554;DHT22;48119;53.218;6.576;2023-12-28T11:58:18;12.70;99.90
58554;DHT22;48119;53.218;6.576;2023-12-28T12:00:44;12.70;99.90
58554;DHT22;48119;53.218;6.576;2023-12-28T12:03:14;12.60;99.90
58554;DHT22;48119;53.218;6.576;2023-12-28T12:05:40;12.60;99.90
58554;DHT22;48119;53.218;6.576;2023-12-28T12:08:06;12.60;99.90
58554;DHT22;48119;53.218;6.576;2023-12-28T12:10:34;12.60;99.90
58554;DHT22;48119;53.218;6.576;2023-12-28T12:13:00;12.60;99.90
58554;DHT22;48119;53.218;6.576;2023-12-28T12:15:29;12.60;99.90
58554;DHT22;48119;53.218;6.576;2023-12-28T12:17:55;12.60;99.90
58554;DHT22;48119;53.218;6.576;2023-12-28T12:20:21;12.60;99.90
58554;DHT22;48119;53.218;6.576;2023-12-28T12:22:48;12.60;99.90
58554;DHT22;48119;53.218;6.576;2023-12-28T12:25:15;12.60;99.90
58554;DHT22;48119;53.218;6.576;2023-12-28T12:27:41;12.60;99.90
58554;DHT22;48119;53.218;6.576;2023-12-28T12:30:07;12.70;99.90
58554;DHT22;48119;53.218;6.576;2023-12-28T12:32:35;12.70;99.90
58554;DHT22;48119;53.218;6.576;2023-12-28T12:35:05;12.70;99.90
58554;DHT22;48119;53.218;6.576;2023-12-28T12:37:31;12.70;99.90
58554;DHT22;48119;53.218;6.576;2023-12-28T12:39:57;12.70;99.90
58554;DHT22;48119;53.218;6.576;2023-12-28T12:42:23;12.70;99.90
58554;DHT22;48119;53.218;6.576;2023-12-28T12:44:49;12.70;99.90
58554;DHT22;48119;53.218;6.576;2023-12-28T12:47:15;12.60;99.90
58554;DHT22;48119;53.218;6.576;2023-12-28T12:49:41;12.60;99.90
58554;DHT22;48119;53.218;6.576;2023-12-28T12:52:09;12.60;99.90
58554;DHT22;48119;53.218;6.576;2023-12-28T12:54:35;12.70;99.90
58554;DHT22;48119;53.218;6.576;2023-12-28T12:57:02;12.70;99.90
58554;DHT22;48119;53.218;6.576;2023-12-28T12:59:28;12.70;99.90
58554;DHT22;48119;53.218;6.576;2023-12-28T13:01:56;12.70;99.90
58554;DHT22;48119;53.218;6.576;2023-12-28T13:04:22;12.70;99.90
58554;DHT22;48119;53.218;6.576;2023-12-28T13:06:47;12.70;99.90
58554;DHT22;48119;53.218;6.576;2023-12-28T13:09:14;12.80;99.90
58554;DHT22;48119;53.218;6.576;2023-12-28T13:11:43;12.80;99.90
58554;DHT22;48119;53.218;6.576;2023-12-28T13:14:09;12.80;99.90
58554;DHT22;48119;53.218;6.576;2023-12-28T13:16:35;12.80;99.90
58554;DHT22;48119;53.218;6.576;2023-12-28T13:19:01;12.80;99.90
58554;DHT22;48119;53.218;6.576;2023-12-28T13:21:27;12.80;99.90
58554;DHT22;48119;53.218;6.576;2023-12-28T13:23:56;12.80;99.90
58554;DHT22;48119;53.218;6.576;2023-12-28T13:26:25;12.80;99.90
58554;DHT22;48119;53.218;6.576;2023-12-28T13:28:50;12.80;99.90
58554;DHT22;48119;53.218;6.576;2023-12-28T13:31:16;12.80;99.90
58554;DHT22;48119;53.218;6.576;2023-12-28T13:33:44;12.80;99.90
58554;DHT22;48119;53.218;6.576;2023-12-28T13:36:09;12.80;99.90
58554;DHT22;48119;53.218;6.576;2023-12-28T13:38:35;12.80;99.90
58554;DHT22;48119;53.218;6.576;2023-12-28T13:41:01;12.80;99.90
58554;DHT22;48119;53.218;6.576;2023-12-28T13:43:27;12.80;99.90
58554;DHT22;48119;53.218;6.576;2023-12-28T13:45:52;12.80;99.90
58554;DHT22;48119;53.218;6.576;2023-12-28T13:48:18;12.90;99.90
58554;DHT22;48119;53.218;6.576;2023-12-28T13:50:44;12.80;99.90
58554;DHT22;48119;53.218;6.576;2023-12-28T13:53:10;12.80;99.90
58554;DHT22;48119;53.218;6.576;2023-12-28T13:55:39;12.80;99.90
58554;DHT22;48119;53.218;6.576;2023-12-28T13:58:05;12.80;99.90
58554;DHT22;48119;53.218;6.576;2023-12-28T14:00:31;12.90;99.90
58554;DHT22;48119;53.218;6.576;2023-12-28T14:02:56;12.90;99.90
58554;DHT22;48119;53.218;6.576;2023-12-28T14:05:24;12.90;99.90
58554;DHT22;48119;53.218;6.576;2023-12-28T14:07:50;12.90;99.90
58554;DHT22;48119;53.218;6.576;2023-12-28T14:10:16;12.90;99.90
58554;DHT22;48119;53.218;6.576;2023-12-28T14:12:42;13.00;99.90
58554;DHT22;48119;53.218;6.576;2023-12-28T14:15:08;13.00;99.90
58554;DHT22;48119;53.218;6.576;2023-12-28T14:17:34;13.00;99.90
58554;DHT22;48119;53.218;6.576;2023-12-28T14:20:00;13.00;99.90
58554;DHT22;48119;53.218;6.576;2023-12-28T14:22:26;13.00;99.90
58554;DHT22;48119;53.218;6.576;2023-12-28T14:24:52;12.90;99.90
58554;DHT22;48119;53.218;6.576;2023-12-28T14:27:18;12.90;99.90
58554;DHT22;48119;53.218;6.576;2023-12-28T14:29:45;12.90;99.90
58554;DHT22;48119;53.218;6.576;2023-12-28T14:32:11;12.90;99.90
58554;DHT22;48119;53.218;6.576;2023-12-28T14:34:37;12.90;99.90
58554;DHT22;48119;53.218;6.576;2023-12-28T14:37:03;12.90;99.90
58554;DHT22;48119;53.218;6.576;2023-12-28T14:39:29;12.80;99.90
58554;DHT22;48119;53.218;6.576;2023-12-28T14:41:55;12.80;99.90
58554;DHT22;48119;53.218;6.576;2023-12-28T14:44:23;12.80;99.90
58554;DHT22;48119;53.218;6.576;2023-12-28T14:46:49;12.70;99.90
58554;DHT22;48119;53.218;6.576;2023-12-28T14:49:15;12.70;99.90
58554;DHT22;48119;53.218;6.576;2023-12-28T14:51:40;12.70;99.90
58554;DHT22;48119;53.218;6.576;2023-12-28T14:54:06;12.70;99.90
58554;DHT22;48119;53.218;6.576;2023-12-28T14:56:32;12.70;99.90
58554;DHT22;48119;53.218;6.576;2023-12-28T14:58:58;12.70;99.90
58554;DHT22;48119;53.218;6.576;2023-12-28T15:01:24;12.70;99.90
58554;DHT22;48119;53.218;6.576;2023-12-28T15:03:50;12.60;99.90
58554;DHT22;48119;53.218;6.576;2023-12-28T15:06:15;12.60;99.90
58554;DHT22;48119;53.218;6.576;2023-12-28T15:08:41;12.60;99.90
58554;DHT22;48119;53.218;6.576;2023-12-28T15:11:07;12.60;99.90
58554;DHT22;48119;53.218;6.576;2023-12-28T15:13:36;12.50;99.90
58554;DHT22;48119;53.218;6.576;2023-12-28T15:16:02;12.60;99.90
58554;DHT22;48119;53.218;6.576;2023-12-28T15:18:30;12.60;99.90
58554;DHT22;48119;53.218;6.576;2023-12-28T15:20:56;12.60;99.90
58554;DHT22;48119;53.218;6.576;2023-12-28T15:23:22;12.60;99.90
58554;DHT22;48119;53.218;6.576;2023-12-28T15:25:48;12.50;99.90
58554;DHT22;48119;53.218;6.576;2023-12-28T15:28:15;12.50;99.90
58554;DHT22;48119;53.218;6.576;2023-12-28T15:30:41;12.60;99.90
58554;DHT22;48119;53.218;6.576;2023-12-28T15:33:06;12.50;99.90
58554;DHT22;48119;53.218;6.576;2023-12-28T15:35:32;12.50;99.90
58554;DHT22;48119;53.218;6.576;2023-12-28T15:37:58;12.60;99.90